NCAR-RAP Real-Time Weather Data

Output produced by METARs form (26 July 2017  00:41 UTC)
found at http://weather.rap.ucar.edu/surface/
 
Conditions at: KHQZ observed 25 July 2017  23:50 UTC
Temperature: 33.0°C (91°F)
Dewpoint: 21.0°C (70°F) [RH = 49%]
Pressure (altimeter): 30.01 inches Hg (1016.3 mb)
Winds: from the SSE (150 degrees) at 9 MPH (8 knots; 4.2 m/s)
Visibility: 10 or more miles (16+ km)
Ceiling: at least 12,000 feet AGL
Clouds: sky clear below 12,000 feet AGL
Present Weather: no significant weather observed at this time
KHQZ 252350Z 15008KT 10SM CLR 33/21 A3001